sensor_id;sensor_type;location;lat;lon;timestamp;temperature;humidity
18597;DHT22;9428;50.950;6.912;2022-07-21T00:02:13;20.70;99.90
18597;DHT22;9428;50.950;6.912;2022-07-21T00:05:01;20.80;99.90
18597;DHT22;9428;50.950;6.912;2022-07-21T00:07:49;20.60;99.90
18597;DHT22;9428;50.950;6.912;2022-07-21T00:10:37;20.50;99.90
18597;DHT22;9428;50.950;6.912;2022-07-21T00:13:24;20.60;99.90
18597;DHT22;9428;50.950;6.912;2022-07-21T00:16:11;20.70;99.90
18597;DHT22;9428;50.950;6.912;2022-07-21T00:18:59;20.70;99.90
18597;DHT22;9428;50.950;6.912;2022-07-21T00:21:47;20.50;99.90
18597;DHT22;9428;50.950;6.912;2022-07-21T00:24:35;20.50;99.90
18597;DHT22;9428;50.950;6.912;2022-07-21T00:27:22;20.60;99.90
18597;DHT22;9428;50.950;6.912;2022-07-21T00:30:10;20.50;99.90
18597;DHT22;9428;50.950;6.912;2022-07-21T00:32:58;20.40;99.90
18597;DHT22;9428;50.950;6.912;2022-07-21T00:35:45;20.60;99.90
18597;DHT22;9428;50.950;6.912;2022-07-21T00:38:34;20.60;99.90
18597;DHT22;9428;50.950;6.912;2022-07-21T00:41:21;20.40;99.90
18597;DHT22;9428;50.950;6.912;2022-07-21T00:44:19;20.60;99.90
18597;DHT22;9428;50.950;6.912;2022-07-21T00:47:06;20.60;99.90
18597;DHT22;9428;50.950;6.912;2022-07-21T00:49:55;20.60;99.90
18597;DHT22;9428;50.950;6.912;2022-07-21T00:52:42;20.60;99.90
18597;DHT22;9428;50.950;6.912;2022-07-21T00:55:32;20.60;99.90
18597;DHT22;9428;50.950;6.912;2022-07-21T00:58:19;20.00;99.90
18597;DHT22;9428;50.950;6.912;2022-07-21T01:01:07;20.60;99.90
18597;DHT22;9428;50.950;6.912;2022-07-21T01:03:55;20.60;99.90
18597;DHT22;9428;50.950;6.912;2022-07-21T01:06:42;20.50;99.90
18597;DHT22;9428;50.950;6.912;2022-07-21T01:09:29;20.40;99.90
18597;DHT22;9428;50.950;6.912;2022-07-21T01:12:18;20.60;99.90
18597;DHT22;9428;50.950;6.912;2022-07-21T01:15:09;20.60;99.90
18597;DHT22;9428;50.950;6.912;2022-07-21T01:17:56;20.60;99.90
18597;DHT22;9428;50.950;6.912;2022-07-21T01:20:50;20.50;99.90
18597;DHT22;9428;50.950;6.912;2022-07-21T01:23:39;20.40;99.90
18597;DHT22;9428;50.950;6.912;2022-07-21T01:26:27;20.30;99.90
18597;DHT22;9428;50.950;6.912;2022-07-21T01:29:15;20.20;99.90
18597;DHT22;9428;50.950;6.912;2022-07-21T01:32:03;20.20;99.90
18597;DHT22;9428;50.950;6.912;2022-07-21T01:34:50;20.10;99.90
18597;DHT22;9428;50.950;6.912;2022-07-21T01:37:39;20.00;99.90
18597;DHT22;9428;50.950;6.912;2022-07-21T01:40:28;20.20;99.90
18597;DHT22;9428;50.950;6.912;2022-07-21T01:43:33;20.10;99.90
18597;DHT22;9428;50.950;6.912;2022-07-21T01:46:20;20.20;99.90
18597;DHT22;9428;50.950;6.912;2022-07-21T01:49:08;20.10;99.90
18597;DHT22;9428;50.950;6.912;2022-07-21T01:51:55;20.20;99.90
18597;DHT22;9428;50.950;6.912;2022-07-21T01:54:42;20.20;99.90
18597;DHT22;9428;50.950;6.912;2022-07-21T01:57:33;20.20;99.90
18597;DHT22;9428;50.950;6.912;2022-07-21T02:00:20;20.30;99.90
18597;DHT22;9428;50.950;6.912;2022-07-21T02:03:08;20.20;99.90
18597;DHT22;9428;50.950;6.912;2022-07-21T02:06:00;20.30;99.90
18597;DHT22;9428;50.950;6.912;2022-07-21T02:08:48;20.20;99.90
18597;DHT22;9428;50.950;6.912;2022-07-21T02:11:35;20.10;99.90
18597;DHT22;9428;50.950;6.912;2022-07-21T02:14:24;20.20;99.90
18597;DHT22;9428;50.950;6.912;2022-07-21T02:17:11;20.30;99.90
18597;DHT22;9428;50.950;6.912;2022-07-21T02:19:58;20.30;99.90
18597;DHT22;9428;50.950;6.912;2022-07-21T02:22:45;20.50;99.90
18597;DHT22;9428;50.950;6.912;2022-07-21T02:25:34;20.70;99.90
18597;DHT22;9428;50.950;6.912;2022-07-21T02:28:21;20.80;99.90
18597;DHT22;9428;50.950;6.912;2022-07-21T02:31:10;20.80;99.90
18597;DHT22;9428;50.950;6.912;2022-07-21T02:33:57;20.70;99.90
18597;DHT22;9428;50.950;6.912;2022-07-21T02:36:44;20.70;99.90
18597;DHT22;9428;50.950;6.912;2022-07-21T02:39:32;20.60;99.90
18597;DHT22;9428;50.950;6.912;2022-07-21T02:42:19;20.60;99.90
18597;DHT22;9428;50.950;6.912;2022-07-21T02:45:08;20.70;99.90
18597;DHT22;9428;50.950;6.912;2022-07-21T02:47:58;20.70;99.90
18597;DHT22;9428;50.950;6.912;2022-07-21T02:50:46;20.80;99.90
18597;DHT22;9428;50.950;6.912;2022-07-21T02:53:33;20.70;99.90
18597;DHT22;9428;50.950;6.912;2022-07-21T02:56:20;20.70;99.90
18597;DHT22;9428;50.950;6.912;2022-07-21T02:59:08;20.70;99.90
18597;DHT22;9428;50.950;6.912;2022-07-21T03:01:55;20.60;99.90
18597;DHT22;9428;50.950;6.912;2022-07-21T03:04:45;20.60;99.90
18597;DHT22;9428;50.950;6.912;2022-07-21T03:07:33;20.60;99.90
18597;DHT22;9428;50.950;6.912;2022-07-21T03:10:20;20.60;99.90
18597;DHT22;9428;50.950;6.912;2022-07-21T03:13:07;20.60;99.90
18597;DHT22;9428;50.950;6.912;2022-07-21T03:15:55;20.70;99.90
18597;DHT22;9428;50.950;6.912;2022-07-21T03:18:42;20.60;99.90
18597;DHT22;9428;50.950;6.912;2022-07-21T03:21:31;20.60;99.90
18597;DHT22;9428;50.950;6.912;2022-07-21T03:24:18;20.60;99.90
18597;DHT22;9428;50.950;6.912;2022-07-21T03:27:05;20.60;99.90
18597;DHT22;9428;50.950;6.912;2022-07-21T03:29:52;20.60;99.90
18597;DHT22;9428;50.950;6.912;2022-07-21T03:32:40;20.60;99.90
18597;DHT22;9428;50.950;6.912;2022-07-21T03:35:27;20.60;99.90
18597;DHT22;9428;50.950;6.912;2022-07-21T03:38:16;20.40;99.90
18597;DHT22;9428;50.950;6.912;2022-07-21T03:41:03;20.60;99.90
18597;DHT22;9428;50.950;6.912;2022-07-21T03:43:50;20.60;99.90
18597;DHT22;9428;50.950;6.912;2022-07-21T03:46:37;20.50;99.90
18597;DHT22;9428;50.950;6.912;2022-07-21T03:49:25;20.40;99.90
18597;DHT22;9428;50.950;6.912;2022-07-21T03:52:12;20.50;99.90
18597;DHT22;9428;50.950;6.912;2022-07-21T03:55:00;20.40;99.90
18597;DHT22;9428;50.950;6.912;2022-07-21T03:58:01;20.60;99.90
18597;DHT22;9428;50.950;6.912;2022-07-21T04:00:49;20.50;99.90
18597;DHT22;9428;50.950;6.912;2022-07-21T04:03:36;20.60;99.90
18597;DHT22;9428;50.950;6.912;2022-07-21T04:06:23;20.40;99.90
18597;DHT22;9428;50.950;6.912;2022-07-21T04:09:11;20.40;99.90
18597;DHT22;9428;50.950;6.912;2022-07-21T04:11:59;20.40;99.90
18597;DHT22;9428;50.950;6.912;2022-07-21T04:14:46;20.40;99.90
18597;DHT22;9428;50.950;6.912;2022-07-21T04:17:35;20.40;99.90
18597;DHT22;9428;50.950;6.912;2022-07-21T04:20:23;20.40;99.90
18597;DHT22;9428;50.950;6.912;2022-07-21T04:23:10;20.50;99.90
18597;DHT22;9428;50.950;6.912;2022-07-21T04:25:57;20.50;99.90
18597;DHT22;9428;50.950;6.912;2022-07-21T04:28:46;20.50;99.90
18597;DHT22;9428;50.950;6.912;2022-07-21T04:31:33;20.60;99.90
18597;DHT22;9428;50.950;6.912;2022-07-21T04:34:20;20.60;99.90
18597;DHT22;9428;50.950;6.912;2022-07-21T04:37:08;20.60;99.90
18597;DHT22;9428;50.950;6.912;2022-07-21T04:39:55;20.50;99.90
18597;DHT22;9428;50.950;6.912;2022-07-21T04:42:43;20.50;99.90
18597;DHT22;9428;50.950;6.912;2022-07-21T04:45:32;20.50;99.90
18597;DHT22;9428;50.950;6.912;2022-07-21T04:48:19;20.50;99.90
18597;DHT22;9428;50.950;6.912;2022-07-21T04:51:06;20.50;99.90
18597;DHT22;9428;50.950;6.912;2022-07-21T04:53:54;20.60;99.90
18597;DHT22;9428;50.950;6.912;2022-07-21T04:56:41;20.60;99.90
18597;DHT22;9428;50.950;6.912;2022-07-21T04:59:29;20.60;99.90
18597;DHT22;9428;50.950;6.912;2022-07-21T05:02:17;20.60;99.90
18597;DHT22;9428;50.950;6.912;2022-07-21T05:05:05;20.70;99.90
18597;DHT22;9428;50.950;6.912;2022-07-21T05:07:53;20.60;99.90
18597;DHT22;9428;50.950;6.912;2022-07-21T05:10:41;20.60;99.90
18597;DHT22;9428;50.950;6.912;2022-07-21T05:13:28;20.70;99.90
18597;DHT22;9428;50.950;6.912;2022-07-21T05:16:15;20.70;99.90
18597;DHT22;9428;50.950;6.912;2022-07-21T05:19:04;20.70;99.90
18597;DHT22;9428;50.950;6.912;2022-07-21T05:21:51;20.70;99.90
18597;DHT22;9428;50.950;6.912;2022-07-21T05:24:38;20.70;99.90
18597;DHT22;9428;50.950;6.912;2022-07-21T05:27:25;20.70;99.90
18597;DHT22;9428;50.950;6.912;2022-07-21T05:30:13;20.70;99.90
18597;DHT22;9428;50.950;6.912;2022-07-21T05:33:00;20.70;99.90
18597;DHT22;9428;50.950;6.912;2022-07-21T05:35:49;20.70;99.90
18597;DHT22;9428;50.950;6.912;2022-07-21T05:38:36;20.70;99.90
18597;DHT22;9428;50.950;6.912;2022-07-21T05:41:23;20.80;99.90
18597;DHT22;9428;50.950;6.912;2022-07-21T05:44:11;20.80;99.90
18597;DHT22;9428;50.950;6.912;2022-07-21T05:46:58;20.70;99.90
18597;DHT22;9428;50.950;6.912;2022-07-21T05:49:45;20.60;99.90
18597;DHT22;9428;50.950;6.912;2022-07-21T05:52:34;20.60;99.90
18597;DHT22;9428;50.950;6.912;2022-07-21T05:55:21;20.60;99.90
18597;DHT22;9428;50.950;6.912;2022-07-21T05:58:08;20.70;99.90
18597;DHT22;9428;50.950;6.912;2022-07-21T06:00:56;20.70;99.90
18597;DHT22;9428;50.950;6.912;2022-07-21T06:03:58;21.50;99.90
18597;DHT22;9428;50.950;6.912;2022-07-21T06:06:45;20.50;99.90
18597;DHT22;9428;50.950;6.912;2022-07-21T06:09:34;20.60;99.90
18597;DHT22;9428;50.950;6.912;2022-07-21T06:12:21;20.60;99.90
18597;DHT22;9428;50.950;6.912;2022-07-21T06:15:09;20.60;99.90
18597;DHT22;9428;50.950;6.912;2022-07-21T06:17:57;20.60;99.90
18597;DHT22;9428;50.950;6.912;2022-07-21T06:20:44;20.60;99.90
18597;DHT22;9428;50.950;6.912;2022-07-21T06:23:31;20.60;99.90
18597;DHT22;9428;50.950;6.912;2022-07-21T06:26:20;20.60;99.90
18597;DHT22;9428;50.950;6.912;2022-07-21T06:29:07;20.60;99.90
18597;DHT22;9428;50.950;6.912;2022-07-21T06:31:55;20.60;99.90
18597;DHT22;9428;50.950;6.912;2022-07-21T06:34:43;20.60;99.90
18597;DHT22;9428;50.950;6.912;2022-07-21T06:37:30;20.50;99.90
18597;DHT22;9428;50.950;6.912;2022-07-21T06:40:17;20.70;99.90
18597;DHT22;9428;50.950;6.912;2022-07-21T06:43:06;20.70;99.90
18597;DHT22;9428;50.950;6.912;2022-07-21T06:45:53;20.70;99.90
18597;DHT22;9428;50.950;6.912;2022-07-21T06:48:40;20.80;99.90
18597;DHT22;9428;50.950;6.912;2022-07-21T06:51:28;20.90;99.90
18597;DHT22;9428;50.950;6.912;2022-07-21T06:54:15;21.00;99.90
18597;DHT22;9428;50.950;6.912;2022-07-21T06:57:02;21.00;99.90
18597;DHT22;9428;50.950;6.912;2022-07-21T06:59:51;21.00;99.90
18597;DHT22;9428;50.950;6.912;2022-07-21T07:02:38;21.00;99.90
18597;DHT22;9428;50.950;6.912;2022-07-21T07:05:26;21.20;99.90
18597;DHT22;9428;50.950;6.912;2022-07-21T07:08:15;21.10;99.90
18597;DHT22;9428;50.950;6.912;2022-07-21T07:11:03;21.10;99.90
18597;DHT22;9428;50.950;6.912;2022-07-21T07:13:50;21.10;99.90
18597;DHT22;9428;50.950;6.912;2022-07-21T07:16:39;21.20;99.90
18597;DHT22;9428;50.950;6.912;2022-07-21T07:19:27;21.20;99.90
18597;DHT22;9428;50.950;6.912;2022-07-21T07:22:15;21.30;99.90
18597;DHT22;9428;50.950;6.912;2022-07-21T07:25:03;21.10;99.90
18597;DHT22;9428;50.950;6.912;2022-07-21T07:27:51;21.30;99.90
18597;DHT22;9428;50.950;6.912;2022-07-21T07:30:40;21.70;99.90
18597;DHT22;9428;50.950;6.912;2022-07-21T07:33:29;21.70;99.90
18597;DHT22;9428;50.950;6.912;2022-07-21T07:36:16;21.80;99.90
18597;DHT22;9428;50.950;6.912;2022-07-21T07:39:03;21.60;99.90
18597;DHT22;9428;50.950;6.912;2022-07-21T07:41:51;21.50;99.90
18597;DHT22;9428;50.950;6.912;2022-07-21T07:44:38;21.50;99.90
18597;DHT22;9428;50.950;6.912;2022-07-21T07:47:25;21.60;99.90
18597;DHT22;9428;50.950;6.912;2022-07-21T07:50:15;21.90;99.90
18597;DHT22;9428;50.950;6.912;2022-07-21T07:53:02;22.10;99.90
18597;DHT22;9428;50.950;6.912;2022-07-21T07:55:50;22.20;99.90
18597;DHT22;9428;50.950;6.912;2022-07-21T07:58:37;22.40;99.90
18597;DHT22;9428;50.950;6.912;2022-07-21T08:01:24;22.40;99.90
18597;DHT22;9428;50.950;6.912;2022-07-21T08:04:12;22.40;99.90
18597;DHT22;9428;50.950;6.912;2022-07-21T08:07:02;22.40;99.90
18597;DHT22;9428;50.950;6.912;2022-07-21T08:09:49;22.50;99.90
18597;DHT22;9428;50.950;6.912;2022-07-21T08:12:37;22.40;99.90
18597;DHT22;9428;50.950;6.912;2022-07-21T08:15:24;22.30;99.90
18597;DHT22;9428;50.950;6.912;2022-07-21T08:18:12;22.30;99.90
18597;DHT22;9428;50.950;6.912;2022-07-21T08:21:00;22.40;99.90
18597;DHT22;9428;50.950;6.912;2022-07-21T08:23:48;22.40;99.90
18597;DHT22;9428;50.950;6.912;2022-07-21T08:26:36;22.40;99.90
18597;DHT22;9428;50.950;6.912;2022-07-21T08:29:23;22.50;99.90
18597;DHT22;9428;50.950;6.912;2022-07-21T08:32:10;22.60;99.90
18597;DHT22;9428;50.950;6.912;2022-07-21T08:34:57;22.60;99.90
18597;DHT22;9428;50.950;6.912;2022-07-21T08:37:53;22.60;99.90
18597;DHT22;9428;50.950;6.912;2022-07-21T08:40:44;22.70;99.90
18597;DHT22;9428;50.950;6.912;2022-07-21T08:43:32;22.80;99.90
18597;DHT22;9428;50.950;6.912;2022-07-21T08:46:21;22.80;99.90
18597;DHT22;9428;50.950;6.912;2022-07-21T08:49:10;22.90;99.90
18597;DHT22;9428;50.950;6.912;2022-07-21T08:51:57;22.90;99.90
18597;DHT22;9428;50.950;6.912;2022-07-21T08:54:44;23.10;99.90
18597;DHT22;9428;50.950;6.912;2022-07-21T08:57:33;22.90;99.90
18597;DHT22;9428;50.950;6.912;2022-07-21T09:00:20;22.90;99.90
18597;DHT22;9428;50.950;6.912;2022-07-21T09:03:12;22.80;99.90
18597;DHT22;9428;50.950;6.912;2022-07-21T09:06:06;22.90;99.90
18597;DHT22;9428;50.950;6.912;2022-07-21T09:08:53;22.90;99.90
18597;DHT22;9428;50.950;6.912;2022-07-21T09:11:44;23.00;99.90
18597;DHT22;9428;50.950;6.912;2022-07-21T09:14:33;23.20;99.90
18597;DHT22;9428;50.950;6.912;2022-07-21T09:17:21;23.30;99.90
18597;DHT22;9428;50.950;6.912;2022-07-21T09:20:21;23.30;99.90
18597;DHT22;9428;50.950;6.912;2022-07-21T09:23:10;23.10;99.90
18597;DHT22;9428;50.950;6.912;2022-07-21T09:25:58;23.10;99.90
18597;DHT22;9428;50.950;6.912;2022-07-21T09:28:45;23.00;99.90
18597;DHT22;9428;50.950;6.912;2022-07-21T09:31:35;23.10;99.90
18597;DHT22;9428;50.950;6.912;2022-07-21T09:34:22;23.10;99.90
18597;DHT22;9428;50.950;6.912;2022-07-21T09:37:10;23.00;99.90
18597;DHT22;9428;50.950;6.912;2022-07-21T09:39:58;23.20;99.90
18597;DHT22;9428;50.950;6.912;2022-07-21T09:42:50;23.30;99.90
18597;DHT22;9428;50.950;6.912;2022-07-21T09:45:37;23.40;99.90
18597;DHT22;9428;50.950;6.912;2022-07-21T09:48:37;23.50;99.90
18597;DHT22;9428;50.950;6.912;2022-07-21T09:51:27;23.60;99.90
18597;DHT22;9428;50.950;6.912;2022-07-21T09:54:16;23.50;99.90
18597;DHT22;9428;50.950;6.912;2022-07-21T09:57:03;23.50;99.90
18597;DHT22;9428;50.950;6.912;2022-07-21T09:59:51;23.50;99.90
18597;DHT22;9428;50.950;6.912;2022-07-21T10:02:38;23.60;99.90
18597;DHT22;9428;50.950;6.912;2022-07-21T10:05:27;23.50;99.90
18597;DHT22;9428;50.950;6.912;2022-07-21T10:08:14;23.60;99.90
18597;DHT22;9428;50.950;6.912;2022-07-21T10:11:02;23.30;99.90
18597;DHT22;9428;50.950;6.912;2022-07-21T10:13:49;23.40;99.90
18597;DHT22;9428;50.950;6.912;2022-07-21T10:16:36;23.10;99.90
18597;DHT22;9428;50.950;6.912;2022-07-21T10:19:28;23.10;99.90
18597;DHT22;9428;50.950;6.912;2022-07-21T10:22:26;23.10;99.90
18597;DHT22;9428;50.950;6.912;2022-07-21T10:25:15;23.20;99.90
18597;DHT22;9428;50.950;6.912;2022-07-21T10:28:12;23.30;99.90
18597;DHT22;9428;50.950;6.912;2022-07-21T10:31:12;23.20;99.90
18597;DHT22;9428;50.950;6.912;2022-07-21T10:34:01;23.00;99.90
18597;DHT22;9428;50.950;6.912;2022-07-21T10:36:48;22.90;99.90
18597;DHT22;9428;50.950;6.912;2022-07-21T10:39:38;22.90;99.90
18597;DHT22;9428;50.950;6.912;2022-07-21T10:42:25;22.70;99.90
18597;DHT22;9428;50.950;6.912;2022-07-21T10:45:29;22.70;99.90
18597;DHT22;9428;50.950;6.912;2022-07-21T10:48:46;22.80;99.90
18597;DHT22;9428;50.950;6.912;2022-07-21T10:51:35;22.80;99.90
18597;DHT22;9428;50.950;6.912;2022-07-21T10:54:24;22.70;99.90
18597;DHT22;9428;50.950;6.912;2022-07-21T10:57:30;22.70;99.90
18597;DHT22;9428;50.950;6.912;2022-07-21T11:00:26;22.70;99.90
18597;DHT22;9428;50.950;6.912;2022-07-21T11:03:17;22.30;99.90
18597;DHT22;9428;50.950;6.912;2022-07-21T11:06:28;22.20;99.90
18597;DHT22;9428;50.950;6.912;2022-07-21T11:09:18;22.10;99.90
18597;DHT22;9428;50.950;6.912;2022-07-21T11:12:06;22.10;99.90
18597;DHT22;9428;50.950;6.912;2022-07-21T11:14:57;22.10;99.90
18597;DHT22;9428;50.950;6.912;2022-07-21T11:17:45;22.10;99.90
18597;DHT22;9428;50.950;6.912;2022-07-21T11:20:32;21.80;99.90
18597;DHT22;9428;50.950;6.912;2022-07-21T11:23:19;21.70;99.90
18597;DHT22;9428;50.950;6.912;2022-07-21T11:26:07;21.80;99.90
18597;DHT22;9428;50.950;6.912;2022-07-21T11:29:04;21.90;99.90
18597;DHT22;9428;50.950;6.912;2022-07-21T11:31:54;21.70;99.90
18597;DHT22;9428;50.950;6.912;2022-07-21T11:34:46;21.60;99.90
18597;DHT22;9428;50.950;6.912;2022-07-21T11:37:34;21.50;99.90
18597;DHT22;9428;50.950;6.912;2022-07-21T11:40:21;21.40;99.90
18597;DHT22;9428;50.950;6.912;2022-07-21T11:43:09;21.20;99.90
18597;DHT22;9428;50.950;6.912;2022-07-21T11:45:56;21.10;99.90
18597;DHT22;9428;50.950;6.912;2022-07-21T11:48:46;21.10;99.90
18597;DHT22;9428;50.950;6.912;2022-07-21T11:51:33;21.10;99.90
18597;DHT22;9428;50.950;6.912;2022-07-21T11:54:26;20.80;99.90
18597;DHT22;9428;50.950;6.912;2022-07-21T11:57:15;20.80;99.90
18597;DHT22;9428;50.950;6.912;2022-07-21T12:00:04;20.60;99.90
18597;DHT22;9428;50.950;6.912;2022-07-21T12:03:04;20.60;99.90
18597;DHT22;9428;50.950;6.912;2022-07-21T12:05:53;20.50;99.90
18597;DHT22;9428;50.950;6.912;2022-07-21T12:08:42;20.60;99.90
18597;DHT22;9428;50.950;6.912;2022-07-21T12:11:34;20.40;99.90
18597;DHT22;9428;50.950;6.912;2022-07-21T12:14:38;20.40;99.90
18597;DHT22;9428;50.950;6.912;2022-07-21T12:17:34;20.40;99.90
18597;DHT22;9428;50.950;6.912;2022-07-21T12:20:26;20.50;99.90
18597;DHT22;9428;50.950;6.912;2022-07-21T12:23:23;20.50;99.90
18597;DHT22;9428;50.950;6.912;2022-07-21T12:26:20;20.60;99.90
18597;DHT22;9428;50.950;6.912;2022-07-21T12:29:08;20.60;99.90
18597;DHT22;9428;50.950;6.912;2022-07-21T12:31:55;20.50;99.90
18597;DHT22;9428;50.950;6.912;2022-07-21T12:34:49;20.60;99.90
18597;DHT22;9428;50.950;6.912;2022-07-21T12:38:03;20.50;99.90
18597;DHT22;9428;50.950;6.912;2022-07-21T12:40:57;20.50;99.90
18597;DHT22;9428;50.950;6.912;2022-07-21T12:43:53;20.70;99.90
18597;DHT22;9428;50.950;6.912;2022-07-21T12:46:40;20.60;99.90
18597;DHT22;9428;50.950;6.912;2022-07-21T12:49:29;20.50;99.90
18597;DHT22;9428;50.950;6.912;2022-07-21T12:52:17;20.60;99.90
18597;DHT22;9428;50.950;6.912;2022-07-21T12:55:05;20.50;99.90
18597;DHT22;9428;50.950;6.912;2022-07-21T12:57:54;20.40;99.90
18597;DHT22;9428;50.950;6.912;2022-07-21T13:00:41;20.40;99.90
18597;DHT22;9428;50.950;6.912;2022-07-21T13:03:29;20.40;99.90
18597;DHT22;9428;50.950;6.912;2022-07-21T13:06:17;20.60;99.90
18597;DHT22;9428;50.950;6.912;2022-07-21T13:09:04;20.50;99.90
18597;DHT22;9428;50.950;6.912;2022-07-21T13:11:51;20.50;99.90
18597;DHT22;9428;50.950;6.912;2022-07-21T13:14:40;20.40;99.90
18597;DHT22;9428;50.950;6.912;2022-07-21T13:17:28;20.60;99.90
18597;DHT22;9428;50.950;6.912;2022-07-21T13:20:15;20.60;99.90
18597;DHT22;9428;50.950;6.912;2022-07-21T13:23:02;20.60;99.90
18597;DHT22;9428;50.950;6.912;2022-07-21T13:25:50;20.70;99.90
18597;DHT22;9428;50.950;6.912;2022-07-21T13:28:37;20.60;99.90
18597;DHT22;9428;50.950;6.912;2022-07-21T13:31:27;20.50;99.90
18597;DHT22;9428;50.950;6.912;2022-07-21T13:34:14;20.60;99.90
18597;DHT22;9428;50.950;6.912;2022-07-21T13:37:01;20.60;99.90
18597;DHT22;9428;50.950;6.912;2022-07-21T13:39:49;20.60;99.90
18597;DHT22;9428;50.950;6.912;2022-07-21T13:42:36;20.60;99.90
18597;DHT22;9428;50.950;6.912;2022-07-21T13:45:23;20.50;99.90
18597;DHT22;9428;50.950;6.912;2022-07-21T13:48:12;20.60;99.90
18597;DHT22;9428;50.950;6.912;2022-07-21T13:50:59;20.50;99.90
18597;DHT22;9428;50.950;6.912;2022-07-21T13:53:49;20.30;99.90
18597;DHT22;9428;50.950;6.912;2022-07-21T13:56:37;20.10;99.90
18597;DHT22;9428;50.950;6.912;2022-07-21T13:59:24;20.20;99.90
18597;DHT22;9428;50.950;6.912;2022-07-21T14:02:11;20.20;99.90
18597;DHT22;9428;50.950;6.912;2022-07-21T14:05:00;20.10;99.90
18597;DHT22;9428;50.950;6.912;2022-07-21T14:07:47;20.20;99.90
18597;DHT22;9428;50.950;6.912;2022-07-21T14:10:34;20.20;99.90
18597;DHT22;9428;50.950;6.912;2022-07-21T14:13:22;20.00;99.90
18597;DHT22;9428;50.950;6.912;2022-07-21T14:16:09;20.00;99.90
18597;DHT22;9428;50.950;6.912;2022-07-21T14:18:56;20.10;99.90
18597;DHT22;9428;50.950;6.912;2022-07-21T14:21:45;20.10;99.90
18597;DHT22;9428;50.950;6.912;2022-07-21T14:24:33;20.10;99.90
18597;DHT22;9428;50.950;6.912;2022-07-21T14:27:38;20.00;99.90
18597;DHT22;9428;50.950;6.912;2022-07-21T14:30:27;20.00;99.90
18597;DHT22;9428;50.950;6.912;2022-07-21T14:33:15;20.10;99.90
18597;DHT22;9428;50.950;6.912;2022-07-21T14:36:02;20.10;99.90
18597;DHT22;9428;50.950;6.912;2022-07-21T14:38:51;20.10;99.90
18597;DHT22;9428;50.950;6.912;2022-07-21T14:41:38;20.10;99.90
18597;DHT22;9428;50.950;6.912;2022-07-21T14:44:25;20.20;99.90
18597;DHT22;9428;50.950;6.912;2022-07-21T14:47:13;20.10;99.90
18597;DHT22;9428;50.950;6.912;2022-07-21T14:50:00;20.10;99.90
18597;DHT22;9428;50.950;6.912;2022-07-21T14:52:47;20.00;99.90
18597;DHT22;9428;50.950;6.912;2022-07-21T14:55:36;20.00;99.90
18597;DHT22;9428;50.950;6.912;2022-07-21T14:58:23;20.00;99.90
18597;DHT22;9428;50.950;6.912;2022-07-21T15:01:11;20.00;99.90
18597;DHT22;9428;50.950;6.912;2022-07-21T15:03:58;19.90;99.90
18597;DHT22;9428;50.950;6.912;2022-07-21T15:06:45;20.00;99.90
18597;DHT22;9428;50.950;6.912;2022-07-21T15:09:33;20.10;99.90
18597;DHT22;9428;50.950;6.912;2022-07-21T15:12:22;20.10;99.90
18597;DHT22;9428;50.950;6.912;2022-07-21T15:15:10;20.00;99.90
18597;DHT22;9428;50.950;6.912;2022-07-21T15:17:57;20.00;99.90
18597;DHT22;9428;50.950;6.912;2022-07-21T15:20:44;20.20;99.90
18597;DHT22;9428;50.950;6.912;2022-07-21T15:23:31;20.50;99.90
18597;DHT22;9428;50.950;6.912;2022-07-21T15:26:19;20.70;99.90
18597;DHT22;9428;50.950;6.912;2022-07-21T15:29:07;20.60;99.90
18597;DHT22;9428;50.950;6.912;2022-07-21T15:31:54;20.70;99.90
18597;DHT22;9428;50.950;6.912;2022-07-21T15:34:42;20.70;99.90
18597;DHT22;9428;50.950;6.912;2022-07-21T15:37:29;20.60;99.90
18597;DHT22;9428;50.950;6.912;2022-07-21T15:40:16;20.40;99.90
18597;DHT22;9428;50.950;6.912;2022-07-21T15:43:04;20.30;99.90
18597;DHT22;9428;50.950;6.912;2022-07-21T15:45:53;20.20;99.90
18597;DHT22;9428;50.950;6.912;2022-07-21T15:48:40;20.20;99.90
18597;DHT22;9428;50.950;6.912;2022-07-21T15:51:27;20.30;99.90
18597;DHT22;9428;50.950;6.912;2022-07-21T15:54:15;20.40;99.90
18597;DHT22;9428;50.950;6.912;2022-07-21T15:57:03;20.30;99.90
18597;DHT22;9428;50.950;6.912;2022-07-21T15:59:50;20.40;99.90
18597;DHT22;9428;50.950;6.912;2022-07-21T16:02:39;20.40;99.90
18597;DHT22;9428;50.950;6.912;2022-07-21T16:05:27;20.30;99.90
18597;DHT22;9428;50.950;6.912;2022-07-21T16:08:15;20.30;99.90
18597;DHT22;9428;50.950;6.912;2022-07-21T16:11:03;20.40;99.90
18597;DHT22;9428;50.950;6.912;2022-07-21T16:13:50;20.40;99.90
18597;DHT22;9428;50.950;6.912;2022-07-21T16:16:37;20.20;99.90
18597;DHT22;9428;50.950;6.912;2022-07-21T16:19:26;20.20;99.90
18597;DHT22;9428;50.950;6.912;2022-07-21T16:22:13;20.20;99.90
18597;DHT22;9428;50.950;6.912;2022-07-21T16:25:01;20.10;99.90
18597;DHT22;9428;50.950;6.912;2022-07-21T16:27:49;20.30;99.90
18597;DHT22;9428;50.950;6.912;2022-07-21T16:30:37;20.30;99.90
18597;DHT22;9428;50.950;6.912;2022-07-21T16:33:25;20.20;99.90
18597;DHT22;9428;50.950;6.912;2022-07-21T16:36:13;20.20;99.90
18597;DHT22;9428;50.950;6.912;2022-07-21T16:39:01;20.20;99.90
18597;DHT22;9428;50.950;6.912;2022-07-21T16:41:48;20.20;99.90
18597;DHT22;9428;50.950;6.912;2022-07-21T16:44:35;20.10;99.90
18597;DHT22;9428;50.950;6.912;2022-07-21T16:47:22;20.10;99.90
18597;DHT22;9428;50.950;6.912;2022-07-21T16:50:10;20.00;99.90
18597;DHT22;9428;50.950;6.912;2022-07-21T16:53:03;20.20;99.90
18597;DHT22;9428;50.950;6.912;2022-07-21T16:55:51;20.10;99.90
18597;DHT22;9428;50.950;6.912;2022-07-21T16:58:38;20.20;99.90
18597;DHT22;9428;50.950;6.912;2022-07-21T17:01:26;20.00;99.90
18597;DHT22;9428;50.950;6.912;2022-07-21T17:04:13;20.00;99.90
18597;DHT22;9428;50.950;6.912;2022-07-21T17:07:00;20.00;99.90
18597;DHT22;9428;50.950;6.912;2022-07-21T17:09:49;19.90;99.90
18597;DHT22;9428;50.950;6.912;2022-07-21T17:12:37;20.00;99.90
18597;DHT22;9428;50.950;6.912;2022-07-21T17:15:24;19.90;99.90
18597;DHT22;9428;50.950;6.912;2022-07-21T17:18:11;19.80;99.90
18597;DHT22;9428;50.950;6.912;2022-07-21T17:20:59;19.80;99.90
18597;DHT22;9428;50.950;6.912;2022-07-21T17:23:48;19.70;99.90
18597;DHT22;9428;50.950;6.912;2022-07-21T17:26:36;19.90;99.90
18597;DHT22;9428;50.950;6.912;2022-07-21T17:29:24;19.90;99.90
18597;DHT22;9428;50.950;6.912;2022-07-21T17:32:11;19.90;99.90
18597;DHT22;9428;50.950;6.912;2022-07-21T17:34:58;19.80;99.90
18597;DHT22;9428;50.950;6.912;2022-07-21T17:37:45;19.70;99.90
18597;DHT22;9428;50.950;6.912;2022-07-21T17:40:33;19.60;99.90
18597;DHT22;9428;50.950;6.912;2022-07-21T17:43:22;19.70;99.90
18597;DHT22;9428;50.950;6.912;2022-07-21T17:46:10;19.70;99.90
18597;DHT22;9428;50.950;6.912;2022-07-21T17:48:57;19.20;99.90
18597;DHT22;9428;50.950;6.912;2022-07-21T17:51:45;19.80;99.90
18597;DHT22;9428;50.950;6.912;2022-07-21T17:54:32;19.70;99.90
18597;DHT22;9428;50.950;6.912;2022-07-21T17:57:19;19.70;99.90
18597;DHT22;9428;50.950;6.912;2022-07-21T18:00:26;19.70;99.90
18597;DHT22;9428;50.950;6.912;2022-07-21T18:03:13;19.60;99.90